^^
Datos históricos de la estación: Murcia-Puente Tocinos
Diario Informe para Septiembre 9, 2019 Unidades:  Ingés    Métrico   Ambas
Diario Semanal Mensual Anual
  Máxima: Mínima: Promedio:
Temperatura: 83.5 °F 64.4 °F 72 °F
Punto de rocio: 65.1 °F 59.5 °F 62.1 °F
Humedad: 85% 49.1% 72%
Velocidad viento: 8.5mph 0mph 3.3mph
Racha viento: 15.2mph - -
Viento- - SSE
Presión: 30 in 29.9 in -
Precipitación: 0 in    
 
 
Tabla de datos para Septiembre 9, 2019
Hora Temperatura Punto de rocio Presión Viento Velocidad viento Racha viento Humedad Intensidad lluvia(por hora) Nubes
00:04 69.8 °F 61.5 °F 30 in NO 2.4 mph 5 mph 75% 0 in
00:09 69.6 °F 61.3 °F 30 in NO 2.2 mph 4 mph 75% 0 in
00:14 69.6 °F 61.3 °F 30 in NO 1.4 mph 3.5 mph 75.3% 0 in
00:19 69.6 °F 61.3 °F 30 in NO 1.5 mph 3.5 mph 75.2% 0 in
00:24 69.4 °F 61.5 °F 30 in NO 1.8 mph 3 mph 76% 0 in
00:29 69.4 °F 61.5 °F 30 in NO 1.5 mph 2.4 mph 76% 0 in
00:34 69.4 °F 61.5 °F 30 in Calm   3.5 mph 76% 0 in
00:39 69.4 °F 61.5 °F 30 in NO 0.3 mph 3.5 mph 76% 0 in
00:44 69.4 °F 61.5 °F 30 in North 1.8 mph 4.7 mph 76% 0 in
00:49 69.4 °F 61.5 °F 30 in SSE 2 mph 5 mph 76% 0 in
00:54 69.3 °F 61.3 °F 30 in SE 2.9 mph 5 mph 76% 0 in
00:59 69.3 °F 61.3 °F 30 in SE 2.8 mph 5 mph 76% 0 in
01:04 69.3 °F 61.3 °F 30 in SE 2.4 mph 4.7 mph 76% 0 in
01:09 69.1 °F 61.5 °F 30 in SE 2.3 mph 5 mph 76.7% 0 in
01:14 69.1 °F 61.5 °F 30 in SE 2 mph 4.6 mph 76.9% 0 in
01:19 69.1 °F 61.5 °F 30 in SSE 2.1 mph 5 mph 77% 0 in
01:24 69.1 °F 61.5 °F 30 in SSE 2.4 mph 5 mph 77% 0 in
01:29 69.1 °F 61.5 °F 30 in SSE 2.3 mph 5 mph 77% 0 in
01:34 69.1 °F 61.5 °F 30 in SSE 2 mph 3 mph 77% 0 in
01:39 68.7 °F 61.3 °F 30 in Sur 2 mph 3.5 mph 77% 0 in
01:44 68.5 °F 61.2 °F 30 in OSO 1.8 mph 3.5 mph 77.5% 0 in
01:49 68.4 °F 61.2 °F 30 in OSO 1.5 mph 3 mph 78% 0 in
01:54 68.2 °F 61.2 °F 30 in Calm   2.3 mph 78.4% 0 in
01:59 68 °F 61.2 °F 30 in Calm   2.9 mph 79% 0 in
02:04 68 °F 61.2 °F 30 in Calm   3 mph 79% 0 in
02:09 67.8 °F 61.2 °F 30 in OSO 0.2 mph 2.9 mph 79% 0 in
02:14 67.8 °F 61.2 °F 30 in Oeste 1.4 mph 3.5 mph 79.5% 0 in
02:19 67.6 °F 61.2 °F 30 in Oeste 1.1 mph 3 mph 80% 0 in
02:24 67.6 °F 61.2 °F 30 in Calm   2.9 mph 80% 0 in
02:29 67.5 °F 61.2 °F 30 in Oeste 0.2 mph 3 mph 80% 0 in
02:34 67.5 °F 61.2 °F 30 in Oeste 1.4 mph 2.4 mph 80% 0 in
02:39 67.5 °F 61.2 °F 30 in Oeste 1.1 mph 2.3 mph 80% 0 in
02:44 67.5 °F 61.2 °F 30 in Calm   2 mph 80% 0 in
02:49 67.5 °F 61.2 °F 30 in Calm     80% 0 in
02:54 67.5 °F 61.2 °F 30 in Calm     80% 0 in
02:59 67.5 °F 61.2 °F 30 in Calm   2.4 mph 80% 0 in
03:04 67.5 °F 61.2 °F 30 in Calm   2.4 mph 80% 0 in
03:09 67.5 °F 61 °F 30 in Oeste 0.2 mph 2.4 mph 80% 0 in
03:14 67.3 °F 61 °F 30 in Oeste 1.4 mph 2.9 mph 80% 0 in
03:19 67.3 °F 60.8 °F 30 in Oeste 1.5 mph 3 mph 80% 0 in
03:24 67.1 °F 60.8 °F 30 in Oeste 1.8 mph 3 mph 80% 0 in
03:29 66.9 °F 60.6 °F 30 in Oeste 1.5 mph 2 mph 80% 0 in
03:34 66.9 °F 60.4 °F 30 in Calm   1.4 mph 80% 0 in
03:39 66.9 °F 60.6 °F 30 in Calm   1.4 mph 80.3% 0 in
03:44 66.7 °F 60.6 °F 30 in Calm   1 mph 81% 0 in
03:49 66.7 °F 60.6 °F 30 in Oeste 0.2 mph 2.9 mph 81% 0 in
03:54 66.6 °F 60.4 °F 30 in Oeste 1.4 mph 3 mph 81% 0 in
03:59 66.4 °F 60.4 °F 30 in Oeste 1.4 mph 2.9 mph 81% 0 in
04:04 66 °F 60.3 °F 30 in Oeste 1.4 mph 3 mph 81.5% 0 in
04:09 65.8 °F 60.3 °F 30 in Oeste 1.4 mph 3 mph 82% 0 in
04:14 65.8 °F 60.3 °F 30 in Oeste 1.4 mph 2 mph 82.3% 0 in
04:19 65.7 °F 60.4 °F 30 in Oeste 1.2 mph 2.3 mph 83% 0 in
04:24 65.7 °F 60.4 °F 30 in Calm   2.3 mph 83% 0 in
04:29 65.7 °F 60.4 °F 30 in Calm   2.3 mph 83% 0 in
04:34 65.7 °F 60.4 °F 30 in Calm   3.5 mph 83% 0 in
04:39 65.8 °F 60.4 °F 30 in Sur 0.3 mph 3 mph 83% 0 in
04:44 65.8 °F 60.4 °F 30 in Sur 1.8 mph 3 mph 83% 0 in
04:49 65.8 °F 60.4 °F 30 in Sur 1.7 mph 4.3 mph 83% 0 in
04:54 65.8 °F 60.6 °F 30 in SSO 1.4 mph 5 mph 83% 0 in
04:59 66 °F 60.6 °F 30 in SSO 1.6 mph 5 mph 83% 0 in
05:04 66 °F 60.6 °F 30 in SSO 2 mph 4 mph 83% 0 in
05:09 66 °F 60.6 °F 30 in SSO 2 mph 3.5 mph 83% 0 in
05:14 66 °F 60.4 °F 30 in SSO 1.8 mph 3 mph 82.2% 0 in
05:19 66 °F 60.4 °F 30 in SSO 1.5 mph 2 mph 82% 0 in
05:24 65.8 °F 60.3 °F 30 in Calm   1.4 mph 82% 0 in
05:29 65.8 °F 60.4 °F 30 in Calm   2.3 mph 82.9% 0 in
05:34 65.7 °F 60.4 °F 30 in Calm   2.3 mph 83% 0 in
05:39 65.7 °F 60.4 °F 30 in SE 0.2 mph 3.6 mph 83% 0 in
05:44 65.5 °F 60.3 °F 30 in SE 1.4 mph 4 mph 83% 0 in
05:49 65.5 °F 60.3 °F 30 in SE 1.5 mph 4.6 mph 83% 0 in
05:54 65.5 °F 60.3 °F 30 in SSE 1.8 mph 5 mph 83% 0 in
05:59 65.5 °F 60.3 °F 30 in SSE 1.8 mph 4 mph 83% 0 in
06:04 65.5 °F 60.3 °F 30 in SSE 1.8 mph 3 mph 83% 0 in
06:09 65.5 °F 60.3 °F 30 in SSE 1.8 mph 3.1 mph 83% 0 in
06:14 65.3 °F 60.1 °F 30 in SSE 1.8 mph 3.5 mph 83% 0 in
06:19 65.3 °F 60.1 °F 30 in SSE 1.5 mph 2.9 mph 83.4% 0 in
06:24 65.1 °F 60.3 °F 30 in Calm   3.5 mph 84% 0 in
06:29 65.1 °F 60.3 °F 30 in SO 0.4 mph 3.1 mph 84% 0 in
06:34 65.1 °F 60.3 °F 30 in SO 2 mph 3.5 mph 84% 0 in
06:39 64.9 °F 60.1 °F 30 in OSO 2 mph 3.6 mph 84% 0 in
06:44 65.1 °F 60.3 °F 30 in OSO 1.8 mph 4 mph 84.2% 0 in
06:49 65.1 °F 60.3 °F 30 in OSO 1.7 mph 3 mph 84.1% 0 in
06:54 65.1 °F 60.3 °F 30 in SSO 1.4 mph 3.5 mph 84% 0 in
06:59 65.1 °F 60.3 °F 30 in ESE 1.5 mph 3.5 mph 84% 0 in
07:04 64.9 °F 60.1 °F 30 in ESE 1.8 mph 3 mph 84% 0 in
07:09 64.9 °F 60.1 °F 30 in ESE 1.8 mph 4 mph 84% 0 in
07:14 64.9 °F 60.1 °F 30 in Sur 1.8 mph 5 mph 84% 0 in
07:19 64.9 °F 60.1 °F 30 in SSO 2 mph 5.2 mph 84% 0 in
07:24 64.9 °F 60.1 °F 30 in Sur 2.9 mph 5.9 mph 84% 0 in
07:29 64.9 °F 60.1 °F 30 in SSO 3.2 mph 7.6 mph 84% 0 in
07:34 64.9 °F 60.1 °F 30 in SSO 4.3 mph 8.1 mph 84% 0 in
07:39 64.9 °F 60.1 °F 30 in SSO 4.3 mph 8 mph 84% 0 in
07:44 65.1 °F 60.1 °F 30 in SSO 4.3 mph 6 mph 84% 0 in
07:49 65.1 °F 60.3 °F 30 in Sur 4.1 mph 5.9 mph 84% 0 in
07:54 64.9 °F 60.1 °F 30 in SE 2.9 mph 6 mph 84% 0 in
07:59 64.9 °F 59.9 °F 30 in SE 3 mph 5.9 mph 84% 0 in
08:04 64.8 °F 59.7 °F 30 in SE 3.6 mph 6.9 mph 84% 0 in
08:09 64.6 °F 59.5 °F 30 in Sur 3.4 mph 7 mph 84% 0 in
08:14 64.6 °F 59.7 °F 30 in Sur 2.4 mph 3.6 mph 84.5% 0 in
08:19 64.6 °F 60.1 °F 30 in SO 2.4 mph 4.7 mph 85% 0 in
08:24 64.6 °F 60.1 °F 30 in NO 2.4 mph 5 mph 85% 0 in
08:29 64.6 °F 59.9 °F 30 in NO 2.4 mph 5 mph 85% 0 in
08:34 64.4 °F 59.9 °F 30 in NO 2.4 mph 5 mph 85% 0 in
08:39 64.4 °F 59.9 °F 30 in NO 2 mph 3 mph 85% 0 in
08:44 64.6 °F 60.1 °F 30 in Calm   2.9 mph 85% 0 in
08:49 64.8 °F 60.1 °F 30 in ESE 0.3 mph 3.6 mph 85% 0 in
08:54 64.9 °F 60.1 °F 30 in ESE 1.4 mph 4.6 mph 84.4% 0 in
08:59 65.1 °F 59.9 °F 30 in SE 1.7 mph 5.9 mph 83.3% 0 in
09:04 65.1 °F 59.7 °F 30 in SSE 3.1 mph 6.9 mph 83% 0 in
09:09 65.1 °F 59.7 °F 30 in SSE 3.2 mph 7 mph 83% 0 in
09:14 65.1 °F 60.1 °F 30 in SE 4 mph 6 mph 83.8% 0 in
09:19 65.3 °F 60.3 °F 30 in Sur 3.9 mph 6 mph 83.4% 0 in
09:24 65.7 °F 60.3 °F 30 in Sur 3.6 mph 6 mph 83% 0 in
09:29 65.8 °F 60.6 °F 30 in Sur 3.5 mph 6 mph 83% 0 in
09:34 66.2 °F 60.6 °F 30 in OSO 3.1 mph 5.2 mph 82.2% 0 in
09:39 66.6 °F 60.8 °F 30 in SO 3 mph 5.2 mph 81.9% 0 in
09:44 66.9 °F 60.8 °F 30 in SSO 2.9 mph 5 mph 81% 0 in
09:49 67.3 °F 60.8 °F 30 in OSO 2.9 mph 5 mph 80% 0 in
09:54 67.5 °F 61 °F 30 in SSO 2.9 mph 6.9 mph 79.7% 0 in
09:59 67.6 °F 61 °F 30 in SSO 2.9 mph 7 mph 79% 0 in
10:04 67.8 °F 61 °F 30 in SSO 3.1 mph 6 mph 79% 0 in
10:09 67.8 °F 61.2 °F 30 in Sur 3.2 mph 6.9 mph 78.7% 0 in
10:14 68.2 °F 61 °F 30 in SSE 3.6 mph 7 mph 78% 0 in
10:19 68.4 °F 61.2 °F 30 in Sur 3.7 mph 7 mph 78% 0 in
10:24 68.5 °F 61.3 °F 30 in SSE 4.3 mph 6 mph 77.8% 0 in
10:29 68.7 °F 61.2 °F 30 in SSE 4.2 mph 6 mph 77% 0 in
10:34 69.1 °F 61.5 °F 30 in Sur 3.6 mph 6.2 mph 76.8% 0 in
10:39 69.1 °F 61.3 °F 30 in SO 3.7 mph 6 mph 76.1% 0 in
10:44 69.1 °F 61.7 °F 30 in Oeste 4 mph 6 mph 77.3% 0 in
10:49 69.4 °F 61.5 °F 30 in SSO 3.7 mph 5.2 mph 76.3% 0 in
10:54 69.8 °F 61.7 °F 30 in OSO 2.4 mph 5 mph 75.6% 0 in
10:59 70 °F 61.7 °F 30 in ONO 2.4 mph 5 mph 75% 0 in
11:04 70.2 °F 61.9 °F 30 in Oeste 2.4 mph 4.6 mph 75% 0 in
11:09 70.2 °F 61.9 °F 30 in Oeste 2.4 mph 5 mph 75% 0 in
11:14 70.2 °F 61.9 °F 30 in Oeste 2.4 mph 5 mph 75% 0 in
11:19 70.2 °F 61.7 °F 30 in ONO 2.3 mph 3.6 mph 74.4% 0 in
11:24 70.3 °F 61.7 °F 30 in NO 1.8 mph 4.6 mph 74% 0 in
11:29 70.5 °F 61.9 °F 30 in ONO 1.8 mph 5 mph 74% 0 in
11:34 70.9 °F 61.7 °F 30 in ONO 1.8 mph 4.6 mph 73% 0 in
11:39 70.9 °F 61.9 °F 30 in ONO 1.9 mph 5 mph 73% 0 in
11:44 71.1 °F 62.1 °F 30 in NO 2 mph 5 mph 73% 0 in
11:49 71.2 °F 61.9 °F 30 in ONO 2.1 mph 5 mph 72.5% 0 in
11:54 71.6 °F 62.1 °F 30 in Oeste 2.4 mph 5 mph 72% 0 in
11:59 72 °F 62.1 °F 30 in OSO 2.4 mph 5 mph 71.5% 0 in
12:04 72.1 °F 62.2 °F 30 in SSO 2.4 mph 5 mph 71% 0 in
12:09 72.9 °F 62.2 °F 30 in SE 2.3 mph 4.6 mph 69.4% 0 in
12:14 73.6 °F 62.2 °F 30 in OSO 2 mph 5 mph 68% 0 in
12:19 73.9 °F 62.4 °F 30 in ONO 2 mph 5.2 mph 67.5% 0 in
12:24 74.1 °F 62.4 °F 30 in NO 2 mph 5.2 mph 67% 0 in
12:29 74.7 °F 63 °F 30 in NNE 2 mph 5.9 mph 66.9% 0 in
12:34 74.8 °F 62.8 °F 30 in NNE 2 mph 6 mph 66.2% 0 in
12:39 75 °F 62.8 °F 30 in North 2.3 mph 6.9 mph 65.7% 0 in
12:44 75 °F 62.6 °F 30 in NE 3.6 mph 7 mph 65.2% 0 in
12:49 75.4 °F 62.8 °F 30 in NNE 3.5 mph 6 mph 64.8% 0 in
12:54 75.6 °F 62.4 °F 30 in Este 2.9 mph 8.1 mph 64% 0 in
12:59 75.7 °F 62.8 °F 30 in SE 3 mph 8 mph 64% 0 in
13:04 76.3 °F 62.8 °F 30 in NE 3.6 mph 5 mph 63% 0 in
13:09 76.6 °F 63 °F 30 in ENE 3.5 mph 6.9 mph 62.6% 0 in
13:14 76.8 °F 63 °F 30 in NE 2.9 mph 7 mph 62.5% 0 in
13:19 77 °F 63 °F 30 in NNO 2.9 mph 7 mph 62% 0 in
13:24 77.4 °F 63.1 °F 30 in NNO 2.9 mph 5.9 mph 61.6% 0 in
13:29 77.5 °F 63 °F 30 in ENE 2.8 mph 6 mph 61% 0 in
13:34 77.9 °F 63 °F 30 in ESE 2.4 mph 5 mph 60.3% 0 in
13:39 77.9 °F 63.1 °F 30 in NNO 2.4 mph 5 mph 60.4% 0 in
13:44 78.3 °F 63.3 °F 30 in ESE 2.4 mph 6.4 mph 60.2% 0 in
13:49 78.6 °F 63.1 °F 30 in Este 2.5 mph 7 mph 59.1% 0 in
13:54 78.6 °F 63.3 °F 30 in ENE 2.9 mph 7 mph 59.5% 0 in
13:59 78.6 °F 63.3 °F 30 in NE 3 mph 6.9 mph 59.4% 0 in
14:04 78.6 °F 63.3 °F 30 in NE 3.6 mph 9.2 mph 59.3% 0 in
14:09 78.6 °F 63.3 °F 30 in ENE 3.6 mph 9 mph 59.6% 0 in
14:14 78.8 °F 63.5 °F 30 in NE 3.6 mph 7 mph 59.6% 0 in
14:19 79.2 °F 63.7 °F 30 in Este 3.7 mph 8.1 mph 59.2% 0 in
14:24 79.2 °F 63.5 °F 30 in SSO 4 mph 8 mph 59% 0 in
14:29 79.3 °F 63.7 °F 30 in NO 3.7 mph 5.9 mph 58.9% 0 in
14:34 79.7 °F 63.7 °F 30 in NNE 2 mph 7.4 mph 58.4% 0 in
14:39 80.1 °F 63.7 °F 30 in NE 2.4 mph 7.4 mph 57.4% 0 in
14:44 80.1 °F 63.5 °F 30 in Este 4 mph 7 mph 57.1% 0 in
14:49 80.2 °F 63.5 °F 30 in ENE 4 mph 8.1 mph 57% 0 in
14:54 80.2 °F 63.5 °F 30 in ESE 4 mph 8.1 mph 56.9% 0 in
14:59 80.4 °F 63.5 °F 30 in ENE 4 mph 8.1 mph 56.2% 0 in
15:04 80.4 °F 63.5 °F 30 in ENE 4 mph 9.2 mph 56.5% 0 in
15:09 80.2 °F 63.5 °F 30 in NE 4.3 mph 10.7 mph 56.7% 0 in
15:14 80.2 °F 63.3 °F 30 in NNE 5.4 mph 11 mph 56.5% 0 in
15:19 80.2 °F 63.5 °F 30 in NNE 5.2 mph 8.5 mph 56.7% 0 in
15:24 80.2 °F 63.7 °F 29.9 in ENE 4.3 mph 9 mph 56.8% 0 in
15:29 80.6 °F 63.5 °F 29.9 in NNE 4.4 mph 10.7 mph 56.2% 0 in
15:34 80.6 °F 63.5 °F 29.9 in NE 4.7 mph 12.7 mph 56% 0 in
15:39 80.8 °F 63.3 °F 29.9 in NE 4.8 mph 13 mph 55.4% 0 in
15:44 81 °F 63.1 °F 29.9 in ENE 5.4 mph 9 mph 55% 0 in
15:49 81 °F 63.5 °F 29.9 in NE 5.2 mph 9.7 mph 55.4% 0 in
15:54 81.1 °F 63.5 °F 29.9 in NNE 4.3 mph 10.4 mph 55% 0 in
15:59 81.3 °F 63.5 °F 29.9 in NNE 4.7 mph 10.4 mph 54.7% 0 in
16:04 81.3 °F 63.7 °F 29.9 in NNE 5.9 mph 8 mph 54.9% 0 in
16:09 81.9 °F 63.7 °F 29.9 in North 5.5 mph 8.5 mph 54.3% 0 in
16:14 82 °F 63.3 °F 29.9 in ENE 3.6 mph 9.2 mph 53% 0 in
16:19 82.4 °F 63.3 °F 29.9 in Este 3.7 mph 9 mph 52.5% 0 in
16:24 82.6 °F 63 °F 29.9 in SSE 4 mph 9 mph 51.6% 0 in
16:29 82.8 °F 62.8 °F 29.9 in ESE 3.9 mph 7.4 mph 51.1% 0 in
16:34 82.8 °F 62.8 °F 29.9 in ENE 3.1 mph 10.4 mph 51% 0 in
16:39 82.8 °F 62.8 °F 29.9 in ESE 3.5 mph 11.5 mph 50.9% 0 in
16:44 82.6 °F 62.6 °F 29.9 in SSE 5.2 mph 12 mph 50.8% 0 in
16:49 82.6 °F 62.4 °F 29.9 in Este 5.3 mph 9 mph 50.8% 0 in
16:54 82.2 °F 62.4 °F 29.9 in Este 5.9 mph 9.2 mph 51% 0 in
16:59 82.6 °F 62.6 °F 29.9 in Este 5.2 mph 8 mph 51.1% 0 in
17:04 82.8 °F 62.2 °F 29.9 in SSO 2.9 mph 5 mph 50% 0 in
17:09 83.1 °F 62.6 °F 29.9 in ONO 2.8 mph 6.2 mph 50% 0 in
17:14 83.5 °F 62.4 °F 29.9 in SSE 2.4 mph 8.1 mph 49.3% 0 in
17:19 83.5 °F 62.4 °F 29.9 in ESE 2.7 mph 8 mph 49.1% 0 in
17:24 83.1 °F 62.6 °F 29.9 in NE 4.3 mph 7 mph 49.9% 0 in
17:29 83.1 °F 63.5 °F 29.9 in NO 4.1 mph 6.9 mph 51.8% 0 in
17:34 83.1 °F 63.7 °F 29.9 in Sur 3.1 mph 7 mph 52.1% 0 in
17:39 82.9 °F 62.8 °F 29.9 in Este 3.2 mph 7.4 mph 50.6% 0 in
17:44 82.6 °F 63.7 °F 29.9 in NNE 3.6 mph 12.7 mph 52.8% 0 in
17:49 81.9 °F 64.6 °F 29.9 in NNE 4.2 mph 13 mph 56% 0 in
17:54 81.3 °F 64.8 °F 29.9 in NNE 6.9 mph 12.7 mph 57.5% 0 in
17:59 81 °F 64.9 °F 29.9 in NE 7.1 mph 13 mph 58.1% 0 in
18:04 80.8 °F 65.1 °F 29.9 in NNE 7.6 mph 13 mph 59% 0 in
18:09 80.8 °F 64.9 °F 29.9 in NE 7.3 mph 12 mph 58.5% 0 in
18:14 81 °F 64.9 °F 29.9 in Este 5.9 mph 10 mph 58.3% 0 in
18:19 81 °F 64.9 °F 29.9 in ESE 5.8 mph 11.5 mph 58% 0 in
18:24 81 °F 64.8 °F 29.9 in SE 5.4 mph 12 mph 58.3% 0 in
18:29 80.4 °F 64.8 °F 29.9 in SE 5.8 mph 12 mph 58.9% 0 in
18:34 80.4 °F 64.8 °F 29.9 in SE 7.4 mph 12.3 mph 59% 0 in
18:39 80.2 °F 64.6 °F 29.9 in SE 7.2 mph 12 mph 59% 0 in
18:44 79.9 °F 64.8 °F 29.9 in ESE 6.4 mph 12 mph 59.9% 0 in
18:49 79.5 °F 64.6 °F 29.9 in ESE 6.5 mph 11.5 mph 60.3% 0 in
18:54 79.3 °F 64.6 °F 29.9 in ESE 6.9 mph 12 mph 61% 0 in
18:59 79.2 °F 64.4 °F 29.9 in ESE 6.7 mph 11.5 mph 61% 0 in
19:04 78.6 °F 64.6 °F 29.9 in ESE 6.2 mph 12 mph 61.8% 0 in
19:09 78.3 °F 64.2 °F 29.9 in ESE 6.3 mph 12.7 mph 62.1% 0 in
19:14 77.9 °F 64.2 °F 29.9 in ESE 6.9 mph 13 mph 63% 0 in
19:19 77.5 °F 63.9 °F 29.9 in ESE 6.8 mph 13 mph 63% 0 in
19:24 77.4 °F 64 °F 29.9 in ESE 6.4 mph 12.7 mph 63.6% 0 in
19:29 77 °F 63.9 °F 29.9 in ESE 6.8 mph 13.8 mph 64% 0 in
19:34 76.6 °F 63.5 °F 29.9 in ESE 8.5 mph 15.2 mph 64.1% 0 in
19:39 76.3 °F 63.7 °F 29.9 in Este 8.3 mph 15 mph 65% 0 in
19:44 75.9 °F 63.3 °F 29.9 in Este 7.4 mph 10.4 mph 65% 0 in
19:49 75.7 °F 63.5 °F 30 in ENE 7.1 mph 11.8 mph 65.7% 0 in
19:54 75.6 °F 63.5 °F 30 in NE 5.9 mph 12 mph 66.2% 0 in
19:59 75.4 °F 63.7 °F 30 in ENE 5.9 mph 13.8 mph 67% 0 in
20:04 75 °F 63.3 °F 30 in Este 5.9 mph 14 mph 67% 0 in
20:09 74.8 °F 63.5 °F 30 in ENE 6.2 mph 13 mph 68% 0 in
20:14 74.7 °F 63.3 °F 30 in Este 7.4 mph 13.7 mph 68% 0 in
20:19 74.5 °F 63.1 °F 30 in ENE 7.2 mph 14 mph 68% 0 in
20:24 74.3 °F 63 °F 30 in ENE 6.4 mph 13 mph 68% 0 in
20:29 74.1 °F 63 °F 30 in Este 6.2 mph 10 mph 68.2% 0 in
20:34 73.9 °F 63.1 °F 30 in ENE 5.4 mph 10 mph 69% 0 in
20:39 73.8 °F 63 °F 30 in ENE 5.4 mph 10.7 mph 69% 0 in
20:44 73.6 °F 63.1 °F 30 in NE 5.4 mph 11.5 mph 70% 0 in
20:49 73.6 °F 63.3 °F 30 in NE 5.5 mph 12 mph 70.4% 0 in
20:54 73.2 °F 63.3 °F 30 in NE 6.2 mph 11 mph 71.2% 0 in
20:59 73.2 °F 63.1 °F 30 in NE 6.2 mph 11 mph 71% 0 in
21:04 73 °F 63.1 °F 30 in NE 5.9 mph 11.8 mph 71% 0 in
21:09 73 °F 63.3 °F 30 in NE 5.9 mph 12 mph 71.7% 0 in
21:14 72.9 °F 63.5 °F 30 in NE 5.9 mph 10.7 mph 72.1% 0 in
21:19 72.7 °F 63.7 °F 30 in NE 6 mph 11 mph 73.5% 0 in
21:24 72.3 °F 63.7 °F 30 in NE 6.4 mph 10 mph 74.5% 0 in
21:29 72 °F 63.9 °F 30 in NNE 6.2 mph 9.7 mph 75.5% 0 in
21:34 71.8 °F 63.9 °F 30 in NE 5.4 mph 10.7 mph 76% 0 in
21:39 71.6 °F 63.7 °F 30 in NE 5.6 mph 11 mph 76% 0 in
21:44 71.6 °F 63.7 °F 30 in NE 6.4 mph 10 mph 76.1% 0 in
21:49 71.4 °F 63.7 °F 30 in NE 6.2 mph 8 mph 76.7% 0 in
21:54 71.4 °F 63.9 °F 30 in NE 5.2 mph 8.1 mph 77% 0 in
21:59 71.2 °F 63.7 °F 30 in NE 5.1 mph 8 mph 77% 0 in
22:04 71.2 °F 63.9 °F 30 in NE 4.7 mph 7.4 mph 77.7% 0 in
22:09 71.1 °F 63.9 °F 30 in NE 4.6 mph 7.4 mph 78% 0 in
22:14 70.9 °F 63.7 °F 30 in NE 4.3 mph 8.1 mph 78% 0 in
22:19 70.9 °F 63.7 °F 30 in NE 4.3 mph 8.1 mph 78% 0 in
22:24 70.9 °F 63.7 °F 30 in NE 4.7 mph 8 mph 78% 0 in
22:29 71.1 °F 63.9 °F 30 in NE 4.6 mph 7 mph 78% 0 in
22:34 71.1 °F 63.9 °F 30 in NE 4 mph 7 mph 78% 0 in
22:39 70.9 °F 63.7 °F 30 in NE 4 mph 7 mph 78% 0 in
22:44 70.9 °F 63.9 °F 30 in NE 4.3 mph 7 mph 78.7% 0 in
22:49 70.5 °F 63.7 °F 30 in NE 4.2 mph 7.4 mph 79% 0 in
22:54 70.3 °F 63.9 °F 30 in NE 3.6 mph 8.1 mph 79.9% 0 in
22:59 70.2 °F 63.7 °F 30 in NE 3.7 mph 8 mph 80% 0 in
23:04 70.2 °F 63.9 °F 30 in NE 4.3 mph 10.2 mph 80.3% 0 in
23:09 70 °F 63.9 °F 30 in NE 4.7 mph 10.4 mph 81% 0 in
23:14 69.8 °F 63.7 °F 30 in NE 6.2 mph 10 mph 81% 0 in
23:19 69.8 °F 63.7 °F 30 in NE 6.2 mph 9.7 mph 81% 0 in
23:24 69.8 °F 63.9 °F 30 in NE 6.2 mph 10 mph 81.4% 0 in
23:29 69.6 °F 64 °F 30 in NE 6.2 mph 9 mph 82% 0 in
23:34 69.6 °F 63.9 °F 30 in NE 5.9 mph 7 mph 82% 0 in
23:39 69.4 °F 63.9 °F 30 in NNE 5.6 mph 7 mph 82% 0 in
23:44 69.4 °F 63.7 °F 30 in NE 4.3 mph 7 mph 82% 0 in
23:49 69.3 °F 63.7 °F 30 in NNE 4.3 mph 7 mph 82.3% 0 in
23:54 69.3 °F 63.9 °F 30 in NE 4 mph 7 mph 83% 0 in
23:59 69.1 °F 63.7 °F 30 in NE 4 mph 6 mph 83% 0 in
Murcia-Puente Tocinos, España
Compliments of Weather Underground - 3 mb

La estación de MeteoMurcia.com, publica sus datos en los siguientes proyectos:

Weather Underground PWS IMURCIAP2 Meteoclimatic www.awekas.at

W3Counter
Web Analytics